KJCT

Kimble County Airport

Junction, Texas, USA
KJCT 260520Z 2606/2706 VRB03KT P6SM SCT015 BKN080 FM261200 VRB03KT 5SM BR SCT100 FM261500 18005KT P6SM SCT250
Issued Valid From Valid To
Apr-26 @ 05:20 UTC
(42 minutes ago)
Apr-26 @ 06:00 UTC
(2 minutes ago)
Apr-27 @ 06:00 UTC
(in 24 hours)
Apr-26 @ 06:00 to Apr-26 @ 12:00
KJCT 260520Z 2606/2706 VRB03KT P6SM SCT015 BKN080
Wind Visibility Clouds
Variable at 3 knots Greater than 6 miles
  • Scattered at 1,500' AGL
  • Broken at 8,000' AGL
From Apr-26 @ 12:00 to Apr-26 @ 15:00
FM261200 VRB03KT 5SM BR SCT100
Wind Visibility Clouds Conditions
Variable at 3 knots 5 miles
  • Scattered at 10,000' AGL
  • Mist
From Apr-26 @ 15:00 to Apr-27 @ 06:00
FM261500 18005KT P6SM SCT250
Wind Visibility Clouds
180° at 5 knots Greater than 6 miles
  • Scattered at 25,000' AGL
KJCT 260520Z 2606/2706 VRB03KT P6SM SCT015 BKN080 FM261200 VRB03KT 5SM BR SCT100 FM261500 18005KT P6SM SCT250
Issued Apr-26 @ 05:20 UTC
(42 minutes ago)
Valid From Apr-26 @ 06:00 UTC
(2 minutes ago)
Valid To Apr-27 @ 06:00 UTC
(in 24 hours)
Apr-26 @ 06:00 - Apr-26 @ 12:00
Wind Visibility
Variable at 3 knots Greater than 6 miles
Clouds
  • Scattered at 1,500' AGL
  • Broken at 8,000' AGL
From Apr-26 @ 12:00 - Apr-26 @ 15:00
Wind Visibility
Variable at 3 knots 5 miles
Clouds
  • Scattered at 10,000' AGL
Conditions
  • Mist
From Apr-26 @ 15:00 - Apr-27 @ 06:00
Wind Visibility
180° at 5 knots Greater than 6 miles
Clouds
  • Scattered at 25,000' AGL